Time;durP1;ratioP1;P1;durP2;ratioP2;P2;SDS_P1;SDS_P2;PMS_P1;PMS_P2;Temp;Humidity;BMP_temperature;BMP_pressure;BME280_temperature;BME280_humidity;BME280_pressure;Samples;Min_cycle;Max_cycle;Signal;HPM_P1;HPM_P2
2023/03/02 00:00:16;;;;;;;;;;;;;;;17.77;61.71;98449.34;2067628;28;19933;-55
2023/03/02 00:01:18;;;;;;;;;;;;;;;17.77;61.92;98444.00;2067089;28;19933;-55
2023/03/02 00:02:21;;;;;;;;;;;;;;;17.75;61.81;98435.34;2069024;28;19936;-50
2023/03/02 00:03:22;;;;;;;;;;;;;;;17.74;61.79;98447.06;2070301;28;19935;-51
2023/03/02 00:04:25;;;;;;;;;;;;;;;17.71;61.77;98434.06;2058827;28;19983;-54
2023/03/02 00:05:27;;;;;;;;;;;;;;;17.70;61.85;98435.13;2061850;28;20047;-54
2023/03/02 00:06:29;;;;;;;;;;;;;;;17.69;61.93;98444.16;2061621;28;19929;-54
2023/03/02 00:07:32;;;;;;;;;;;;;;;17.69;61.97;98438.81;2068209;28;19968;-54
2023/03/02 00:08:33;;;;;;;;;;;;;;;17.68;61.90;98431.81;2065110;28;20513;-55
2023/03/02 00:09:35;;;;;;;;;;;;;;;17.67;62.15;98436.34;2067639;28;19933;-55
2023/03/02 00:10:36;;;;;;;;;;;;;;;17.67;62.01;98438.22;2061759;28;19935;-56
2023/03/02 00:11:39;;;;;;;;;;;;;;;17.65;62.03;98436.53;2062143;28;19941;-55
2023/03/02 00:12:41;;;;;;;;;;;;;;;17.63;62.03;98430.56;2064967;28;19940;-55
2023/03/02 00:13:43;;;;;;;;;;;;;;;17.63;62.09;98430.56;2066325;28;20319;-56
2023/03/02 00:14:43;;;;;;;;;;;;;;;17.62;62.04;98433.44;2071610;28;19929;-56
2023/03/02 00:15:44;;;;;;;;;;;;;;;17.61;62.08;98439.84;2063541;28;19975;-55
2023/03/02 00:16:45;;;;;;;;;;;;;;;17.60;62.32;98436.31;2065812;28;19933;-56
2023/03/02 00:17:46;;;;;;;;;;;;;;;17.59;62.00;98439.22;2066666;28;19995;-55
2023/03/02 00:18:47;;;;;;;;;;;;;;;17.57;62.28;98447.44;2067407;28;19933;-56
2023/03/02 00:19:48;;;;;;;;;;;;;;;17.58;62.22;98445.63;2068900;28;19941;-56
2023/03/02 00:20:49;;;;;;;;;;;;;;;17.56;62.36;98436.94;2064788;28;20551;-55
2023/03/02 00:21:50;;;;;;;;;;;;;;;17.54;62.16;98442.47;2067350;28;19937;-56
2023/03/02 00:22:51;;;;;;;;;;;;;;;17.53;62.21;98440.03;2069964;28;19932;-56
2023/03/02 00:23:52;;;;;;;;;;;;;;;17.52;62.26;98446.38;2065041;28;19929;-56
2023/03/02 00:24:53;;;;;;;;;;;;;;;17.51;62.23;98442.88;2066024;28;19929;-55
2023/03/02 00:25:54;;;;;;;;;;;;;;;17.51;62.35;98442.88;2067005;28;19936;-54
2023/03/02 00:26:55;;;;;;;;;;;;;;;17.51;62.23;98447.44;2065391;28;19925;-55
2023/03/02 00:27:58;;;;;;;;;;;;;;;17.50;62.32;98451.97;2071681;28;19935;-51
2023/03/02 00:28:58;;;;;;;;;;;;;;;17.50;62.35;98441.25;2067692;28;20006;-56
2023/03/02 00:30:00;;;;;;;;;;;;;;;17.47;62.40;98449.69;2068912;28;19933;-51
2023/03/02 00:31:02;;;;;;;;;;;;;;;17.47;62.40;98441.66;2063031;28;19929;-57
2023/03/02 00:32:05;;;;;;;;;;;;;;;17.47;62.40;98440.78;2069111;28;20508;-52
2023/03/02 00:33:05;;;;;;;;;;;;;;;17.43;62.45;98438.53;2066217;28;20354;-54
2023/03/02 00:34:06;;;;;;;;;;;;;;;17.41;62.54;98442.44;2066319;28;19929;-53
2023/03/02 00:35:07;;;;;;;;;;;;;;;17.40;62.63;98441.59;2064226;28;20595;-53
2023/03/02 00:36:14;;;;;;;;;;;;;;;17.41;62.69;98450.47;2068479;28;20007;-56
2023/03/02 00:37:15;;;;;;;;;;;;;;;17.40;62.50;98440.78;2069649;28;20399;-55
2023/03/02 00:38:17;;;;;;;;;;;;;;;17.39;62.58;98429.25;2068376;28;20026;-52
2023/03/02 00:39:18;;;;;;;;;;;;;;;17.39;62.63;98439.97;2065446;28;19974;-56
2023/03/02 00:40:20;;;;;;;;;;;;;;;17.38;62.54;98440.16;2066442;28;19968;-56
2023/03/02 00:41:20;;;;;;;;;;;;;;;17.37;62.77;98438.50;2070416;28;20019;-52
2023/03/02 00:42:22;;;;;;;;;;;;;;;17.36;62.62;98440.38;2072000;28;19925;-56
2023/03/02 00:43:26;;;;;;;;;;;;;;;17.34;62.65;98430.88;2067015;28;19942;-52
2023/03/02 00:44:28;;;;;;;;;;;;;;;17.34;62.71;98430.88;2072079;28;20448;-55
2023/03/02 00:45:28;;;;;;;;;;;;;;;17.32;62.71;98430.22;2072977;28;20276;-51
2023/03/02 00:46:30;;;;;;;;;;;;;;;17.31;62.83;98431.28;2068495;28;19994;-57
2023/03/02 00:47:32;;;;;;;;;;;;;;;17.32;62.54;98431.06;2068676;28;20638;-53
2023/03/02 00:48:33;;;;;;;;;;;;;;;17.30;62.54;98424.25;2067458;28;19938;-50
2023/03/02 00:49:35;;;;;;;;;;;;;;;17.28;62.78;98421.78;2069027;28;19971;-55
2023/03/02 00:50:39;;;;;;;;;;;;;;;17.29;62.83;98427.94;2066300;28;19934;-54
2023/03/02 00:51:40;;;;;;;;;;;;;;;17.26;62.79;98426.50;2064889;28;20292;-54
2023/03/02 00:52:41;;;;;;;;;;;;;;;17.26;62.75;98420.31;2069357;28;19940;-57
2023/03/02 00:53:42;;;;;;;;;;;;;;;17.26;62.92;98421.13;2063869;28;21442;-53
2023/03/02 00:54:44;;;;;;;;;;;;;;;17.24;62.86;98422.38;2069577;28;19964;-57
2023/03/02 00:55:51;;;;;;;;;;;;;;;17.24;62.92;98417.00;2066553;28;19929;-52
2023/03/02 00:56:52;;;;;;;;;;;;;;;17.23;62.93;98423.41;2070045;28;19951;-55
2023/03/02 00:57:53;;;;;;;;;;;;;;;17.21;62.96;98426.25;2067906;28;19925;-53
2023/03/02 00:58:56;;;;;;;;;;;;;;;17.20;62.94;98429.97;2070840;28;19929;-54
2023/03/02 00:59:57;;;;;;;;;;;;;;;17.19;62.99;98428.34;2071268;28;19929;-56
2023/03/02 01:00:59;;;;;;;;;;;;;;;17.18;62.96;98427.50;2066575;28;20171;-51
2023/03/02 01:02:00;;;;;;;;;;;;;;;17.18;62.99;98427.50;2065961;28;19937;-56
2023/03/02 01:03:01;;;;;;;;;;;;;;;17.13;63.22;98429.97;2067688;28;20058;-53
2023/03/02 01:04:02;;;;;;;;;;;;;;;17.13;63.11;98423.75;2070522;28;20445;-55
2023/03/02 01:05:03;;;;;;;;;;;;;;;17.12;63.12;98430.97;2070859;28;19933;-57
2023/03/02 01:06:04;;;;;;;;;;;;;;;17.12;63.16;98422.94;2063085;28;20026;-54
2023/03/02 01:07:07;;;;;;;;;;;;;;;17.11;63.04;98432.00;2068915;28;20069;-52
2023/03/02 01:08:07;;;;;;;;;;;;;;;17.11;63.13;98425.81;2069456;28;20077;-55
2023/03/02 01:09:09;;;;;;;;;;;;;;;17.10;63.29;98429.50;2069290;28;19951;-55
2023/03/02 01:10:10;;;;;;;;;;;;;;;17.10;63.15;98427.66;2067235;28;19938;-56
2023/03/02 01:11:15;;;;;;;;;;;;;;;17.10;63.22;98433.00;2067030;28;19935;-53
2023/03/02 01:12:16;;;;;;;;;;;;;;;17.11;63.05;98434.69;2069476;28;19933;-53
2023/03/02 01:13:17;;;;;;;;;;;;;;;17.08;63.20;98434.28;2064472;28;19955;-54
2023/03/02 01:14:20;;;;;;;;;;;;;;;17.07;63.27;98429.91;2069423;28;19990;-55
2023/03/02 01:15:21;;;;;;;;;;;;;;;17.06;63.35;98434.44;2064716;28;20056;-52
2023/03/02 01:16:22;;;;;;;;;;;;;;;17.05;63.25;98427.44;2067092;28;19936;-54
2023/03/02 01:17:24;;;;;;;;;;;;;;;17.03;63.24;98426.81;2071976;28;19937;-56
2023/03/02 01:18:24;;;;;;;;;;;;;;;17.03;63.41;98421.44;2068158;28;19929;-56
2023/03/02 01:19:26;;;;;;;;;;;;;;;17.03;63.29;98420.63;2065715;28;19944;-55
2023/03/02 01:20:28;;;;;;;;;;;;;;;17.00;63.46;98421.03;2067077;28;19933;-55
2023/03/02 01:21:28;;;;;;;;;;;;;;;17.01;63.38;98423.50;2067421;28;19972;-53
2023/03/02 01:22:30;;;;;;;;;;;;;;;17.00;63.35;98426.38;2070466;28;20423;-53
2023/03/02 01:23:30;;;;;;;;;;;;;;;16.98;63.38;98426.56;2069011;28;20413;-53
2023/03/02 01:24:32;;;;;;;;;;;;;;;16.98;63.38;98421.22;2068484;28;19929;-53
2023/03/02 01:25:32;;;;;;;;;;;;;;;16.97;63.31;98416.91;2062903;28;20533;-56
2023/03/02 01:26:34;;;;;;;;;;;;;;;16.98;63.30;98421.22;2066622;28;20015;-54
2023/03/02 01:27:34;;;;;;;;;;;;;;;16.97;63.47;98422.25;2065807;28;19996;-55
2023/03/02 01:28:36;;;;;;;;;;;;;;;16.96;63.35;98418.72;2069412;28;19933;-54
2023/03/02 01:29:38;;;;;;;;;;;;;;;16.94;63.67;98420.78;2068260;28;19982;-55
2023/03/02 01:30:39;;;;;;;;;;;;;;;16.94;63.45;98409.25;2065420;28;19959;-56
2023/03/02 01:31:40;;;;;;;;;;;;;;;16.91;63.44;98414.97;2061842;28;20308;-55
2023/03/02 01:32:41;;;;;;;;;;;;;;;16.91;63.47;98409.63;2068326;28;20002;-56
2023/03/02 01:33:41;;;;;;;;;;;;;;;16.90;63.39;98406.13;2065230;28;19929;-57
2023/03/02 01:34:43;;;;;;;;;;;;;;;16.91;63.45;98409.63;2069313;28;19979;-54
2023/03/02 01:35:44;;;;;;;;;;;;;;;16.91;63.32;98409.63;2066611;28;19925;-55
2023/03/02 01:36:45;;;;;;;;;;;;;;;16.91;63.23;98404.25;2066151;28;19983;-53
2023/03/02 01:37:45;;;;;;;;;;;;;;;16.90;63.26;98405.31;2062902;28;20171;-55
2023/03/02 01:38:47;;;;;;;;;;;;;;;16.88;63.24;98408.19;2067719;28;20763;-54
2023/03/02 01:39:48;;;;;;;;;;;;;;;16.88;63.45;98407.34;2065615;28;19941;-56
2023/03/02 01:40:49;;;;;;;;;;;;;;;16.86;63.45;98406.72;2062602;28;21565;-54
2023/03/02 01:41:51;;;;;;;;;;;;;;;16.85;63.43;98405.06;2067029;28;19937;-56
2023/03/02 01:42:56;;;;;;;;;;;;;;;16.80;63.62;98400.31;2067889;28;20984;-54
2023/03/02 01:43:57;;;;;;;;;;;;;;;16.81;63.48;98399.28;2066913;28;19933;-56
2023/03/02 01:45:00;;;;;;;;;;;;;;;16.79;63.57;98395.97;2067258;28;20047;-56
2023/03/02 01:46:02;;;;;;;;;;;;;;;16.81;63.51;98396.59;2068059;28;20804;-57
2023/03/02 01:47:03;;;;;;;;;;;;;;;16.81;63.69;98387.75;2068613;28;20012;-55
2023/03/02 01:48:04;;;;;;;;;;;;;;;16.79;63.52;98390.59;2070491;28;20318;-57
2023/03/02 01:49:10;;;;;;;;;;;;;;;16.79;63.49;98387.09;2065245;28;19970;-56
2023/03/02 01:50:17;;;;;;;;;;;;;;;16.80;63.58;98394.09;2063535;28;19937;-55
2023/03/02 01:51:22;;;;;;;;;;;;;;;16.76;63.71;98385.63;2069946;28;20024;-57
2023/03/02 01:52:23;;;;;;;;;;;;;;;16.75;63.67;98384.81;2071991;28;19941;-55
2023/03/02 01:53:26;;;;;;;;;;;;;;;16.73;63.65;98381.47;2068822;28;21718;-55
2023/03/02 01:54:26;;;;;;;;;;;;;;;16.74;63.72;98383.16;2065578;28;19925;-55
2023/03/02 01:55:31;;;;;;;;;;;;;;;16.73;63.60;98376.13;2060357;28;20339;-53
2023/03/02 01:56:34;;;;;;;;;;;;;;;16.73;63.82;98377.97;2071897;28;19929;-58
2023/03/02 01:57:42;;;;;;;;;;;;;;;16.71;63.83;98372.81;2068044;28;20023;-54
2023/03/02 01:58:43;;;;;;;;;;;;;;;16.71;63.69;98380.84;2066006;28;19928;-55
2023/03/02 01:59:45;;;;;;;;;;;;;;;16.70;63.78;98375.69;2066803;28;19932;-55
2023/03/02 02:00:47;;;;;;;;;;;;;;;16.69;63.74;98372.22;2064604;28;19933;-57
2023/03/02 02:01:51;;;;;;;;;;;;;;;16.70;63.75;98375.69;2061937;28;20063;-55
2023/03/02 02:02:53;;;;;;;;;;;;;;;16.68;63.93;98375.88;2064429;28;20386;-57
2023/03/02 02:03:55;;;;;;;;;;;;;;;16.68;63.90;98370.53;2064938;28;19929;-57
2023/03/02 02:04:56;;;;;;;;;;;;;;;16.66;63.97;98372.59;2060150;28;19929;-57
2023/03/02 02:06:00;;;;;;;;;;;;;;;16.65;63.89;98378.97;2066372;28;19931;-52
2023/03/02 02:07:02;;;;;;;;;;;;;;;16.65;63.72;98378.13;2061563;28;19986;-58
2023/03/02 02:08:04;;;;;;;;;;;;;;;16.64;63.76;98376.50;2066844;28;19932;-57
2023/03/02 02:09:07;;;;;;;;;;;;;;;16.63;63.76;98374.81;2064997;28;19929;-51
2023/03/02 02:10:09;;;;;;;;;;;;;;;16.60;63.85;98365.34;2062674;28;20028;-58
2023/03/02 02:11:10;;;;;;;;;;;;;;;16.60;63.88;98376.03;2066946;28;19940;-57
2023/03/02 02:12:12;;;;;;;;;;;;;;;16.58;63.86;98372.75;2068378;28;19936;-52
2023/03/02 02:13:13;;;;;;;;;;;;;;;16.59;63.76;98374.41;2063478;28;19929;-54
2023/03/02 02:14:15;;;;;;;;;;;;;;;16.59;63.74;98374.41;2067058;28;20016;-53
2023/03/02 02:15:15;;;;;;;;;;;;;;;16.59;63.74;98373.56;2066485;28;19983;-52
2023/03/02 02:16:18;;;;;;;;;;;;;;;16.57;63.84;98364.91;2067826;28;19979;-55
2023/03/02 02:17:19;;;;;;;;;;;;;;;16.56;63.89;98374.78;2064632;28;19982;-53
2023/03/02 02:18:20;;;;;;;;;;;;;;;16.57;63.83;98368.41;2066025;28;20515;-56
2023/03/02 02:19:29;;;;;;;;;;;;;;;16.54;63.80;98366.13;2068417;28;20657;-54
2023/03/02 02:20:35;;;;;;;;;;;;;;;16.53;63.74;98369.84;2067645;28;20371;-56
2023/03/02 02:21:35;;;;;;;;;;;;;;;16.52;63.75;98368.19;2064990;28;19935;-54
2023/03/02 02:22:43;;;;;;;;;;;;;;;16.51;63.70;98367.34;2063500;28;20491;-52
2023/03/02 02:23:49;;;;;;;;;;;;;;;16.51;63.75;98367.34;2067693;28;19925;-55
2023/03/02 02:24:53;;;;;;;;;;;;;;;16.49;63.82;98369.41;2065141;28;20979;-54
2023/03/02 02:26:01;;;;;;;;;;;;;;;16.49;63.85;98373.91;2066546;28;19933;-55
2023/03/02 02:27:02;;;;;;;;;;;;;;;16.45;63.89;98370.00;2065464;28;19984;-54
2023/03/02 02:28:07;;;;;;;;;;;;;;;16.46;63.91;98375.13;2066753;28;20311;-55
2023/03/02 02:29:11;;;;;;;;;;;;;;;16.45;63.93;98373.50;2062483;28;20298;-57
2023/03/02 02:30:13;;;;;;;;;;;;;;;16.45;63.94;98373.50;2057628;28;20059;-55
2023/03/02 02:31:15;;;;;;;;;;;;;;;16.45;63.85;98380.69;2065068;28;19971;-55
2023/03/02 02:32:18;;;;;;;;;;;;;;;16.43;63.93;98374.69;2055912;28;19933;-55
2023/03/02 02:33:22;;;;;;;;;;;;;;;16.42;63.85;98376.56;2067671;28;19926;-56
2023/03/02 02:34:27;;;;;;;;;;;;;;;16.43;63.82;98372.03;2067961;28;19929;-56
2023/03/02 02:35:29;;;;;;;;;;;;;;;16.40;63.97;98375.09;2067818;28;19983;-53
2023/03/02 02:36:34;;;;;;;;;;;;;;;16.41;63.97;98374.06;2069771;28;19936;-52
2023/03/02 02:37:38;;;;;;;;;;;;;;;16.39;63.99;98371.59;2063511;28;19975;-55
2023/03/02 02:38:40;;;;;;;;;;;;;;;16.37;64.03;98375.50;2055474;28;19973;-57
2023/03/02 02:39:42;;;;;;;;;;;;;;;16.39;63.91;98373.44;2062004;28;19929;-54
2023/03/02 02:40:46;;;;;;;;;;;;;;;16.37;63.93;98364.78;2060454;28;20039;-56
2023/03/02 02:41:49;;;;;;;;;;;;;;;16.36;64.00;98374.66;2064198;28;19940;-55
2023/03/02 02:42:52;;;;;;;;;;;;;;;16.36;64.06;98373.84;2056929;28;20031;-55
2023/03/02 02:43:53;;;;;;;;;;;;;;;16.35;63.92;98366.81;2060033;28;19937;-57
2023/03/02 02:44:56;;;;;;;;;;;;;;;16.33;63.95;98375.06;2062831;28;19936;-55
2023/03/02 02:45:58;;;;;;;;;;;;;;;16.33;64.02;98380.41;2065218;28;19936;-56
2023/03/02 02:47:00;;;;;;;;;;;;;;;16.33;63.72;98372.38;2062820;28;20395;-55
2023/03/02 02:48:00;;;;;;;;;;;;;;;16.31;64.00;98371.75;2066123;28;19982;-53
2023/03/02 02:49:02;;;;;;;;;;;;;;;16.30;63.90;98378.13;2068972;28;19975;-54
2023/03/02 02:50:03;;;;;;;;;;;;;;;16.30;63.75;98376.28;2062545;28;19940;-54
2023/03/02 02:51:06;;;;;;;;;;;;;;;16.29;63.86;98371.09;2063252;28;20059;-57
2023/03/02 02:52:11;;;;;;;;;;;;;;;16.28;63.83;98382.84;2070784;28;20371;-54
2023/03/02 02:53:14;;;;;;;;;;;;;;;16.26;64.03;98382.19;2062310;28;19933;-58
2023/03/02 02:54:16;;;;;;;;;;;;;;;16.25;64.08;98376.03;2070550;28;19925;-54
2023/03/02 02:55:21;;;;;;;;;;;;;;;16.24;64.19;98378.88;2064946;28;20015;-52
2023/03/02 02:56:21;;;;;;;;;;;;;;;16.25;64.27;98373.34;2066691;28;20655;-52
2023/03/02 02:57:25;;;;;;;;;;;;;;;16.25;64.22;98381.38;2069869;28;19994;-54
2023/03/02 02:58:29;;;;;;;;;;;;;;;16.24;64.12;98374.38;2068367;28;20580;-54
2023/03/02 02:59:32;;;;;;;;;;;;;;;16.23;64.24;98380.75;2060465;28;19940;-52
2023/03/02 03:00:33;;;;;;;;;;;;;;;16.23;64.27;98372.72;2062384;28;19933;-51
2023/03/02 03:01:35;;;;;;;;;;;;;;;16.20;64.24;98370.44;2059196;28;19933;-54
2023/03/02 03:02:39;;;;;;;;;;;;;;;16.22;64.21;98376.41;2062341;28;20014;-54
2023/03/02 03:03:44;;;;;;;;;;;;;;;16.21;64.14;98376.59;2063279;28;19929;-53
2023/03/02 03:04:44;;;;;;;;;;;;;;;16.19;64.04;98378.66;2067379;28;19939;-56
2023/03/02 03:05:46;;;;;;;;;;;;;;;16.17;64.06;98384.19;2068235;28;19952;-52
2023/03/02 03:06:50;;;;;;;;;;;;;;;16.14;64.37;98381.91;2066583;28;20007;-56
2023/03/02 03:07:52;;;;;;;;;;;;;;;16.17;64.14;98384.19;2061852;28;20039;-52
2023/03/02 03:08:57;;;;;;;;;;;;;;;16.16;64.18;98384.38;2066007;28;19933;-55
2023/03/02 03:10:02;;;;;;;;;;;;;;;16.14;64.27;98381.09;2065971;28;19951;-54
2023/03/02 03:11:03;;;;;;;;;;;;;;;16.15;64.07;98388.91;2063137;28;20049;-56
2023/03/02 03:12:08;;;;;;;;;;;;;;;16.14;64.43;98392.63;2064351;28;19929;-54
2023/03/02 03:13:11;;;;;;;;;;;;;;;16.14;64.27;98386.44;2064346;28;19925;-56
2023/03/02 03:14:14;;;;;;;;;;;;;;;16.14;64.26;98391.78;2067194;28;19970;-55
2023/03/02 03:15:15;;;;;;;;;;;;;;;16.09;64.22;98387.00;2065443;28;19929;-55
2023/03/02 03:16:17;;;;;;;;;;;;;;;16.10;64.23;98388.66;2060936;28;19925;-54
2023/03/02 03:17:19;;;;;;;;;;;;;;;16.07;64.26;98389.91;2063537;28;19925;-55
2023/03/02 03:18:21;;;;;;;;;;;;;;;16.07;64.29;98389.03;2068531;28;19975;-56
2023/03/02 03:19:24;;;;;;;;;;;;;;;16.07;64.18;98389.03;2057533;28;28468;-55
2023/03/02 03:20:25;;;;;;;;;;;;;;;16.09;64.14;98387.00;2069892;28;19929;-55
2023/03/02 03:21:27;;;;;;;;;;;;;;;16.09;64.09;98384.34;2060373;28;20994;-56
2023/03/02 03:22:27;;;;;;;;;;;;;;;16.07;64.29;98389.91;2063259;28;20018;-61
2023/03/02 03:23:29;;;;;;;;;;;;;;;16.06;64.18;98385.53;2064225;28;19933;-57
2023/03/02 03:24:30;;;;;;;;;;;;;;;16.05;64.19;98383.91;2063920;28;19933;-53
2023/03/02 03:25:33;;;;;;;;;;;;;;;16.06;64.13;98384.72;2060861;28;20669;-55
2023/03/02 03:26:34;;;;;;;;;;;;;;;16.04;64.25;98389.44;2058191;28;19932;-55
2023/03/02 03:27:35;;;;;;;;;;;;;;;16.03;64.34;98385.13;2060728;28;19944;-56
2023/03/02 03:28:37;;;;;;;;;;;;;;;16.04;64.17;98387.56;2062379;28;20018;-54
2023/03/02 03:29:39;;;;;;;;;;;;;;;16.02;64.26;98392.31;2065086;28;19937;-53
2023/03/02 03:30:40;;;;;;;;;;;;;;;16.02;64.26;98395.00;2061553;28;19929;-54
2023/03/02 03:31:41;;;;;;;;;;;;;;;16.02;64.35;98395.00;2063553;28;20050;-55
2023/03/02 03:32:42;;;;;;;;;;;;;;;16.00;64.27;98396.19;2067742;28;20583;-54
2023/03/02 03:33:43;;;;;;;;;;;;;;;15.99;64.35;98395.38;2071015;28;19932;-54
2023/03/02 03:34:44;;;;;;;;;;;;;;;15.99;64.36;98397.19;2065681;28;20460;-56
2023/03/02 03:35:46;;;;;;;;;;;;;;;15.97;64.51;98394.75;2068721;28;19933;-56
2023/03/02 03:36:46;;;;;;;;;;;;;;;15.96;64.41;98401.09;2069079;28;19987;-55
2023/03/02 03:37:48;;;;;;;;;;;;;;;15.99;64.53;98389.19;2071766;28;19941;-52
2023/03/02 03:38:48;;;;;;;;;;;;;;;15.99;64.35;98395.38;2066913;28;19979;-54
2023/03/02 03:39:50;;;;;;;;;;;;;;;15.98;64.26;98392.88;2072337;28;20394;-55
2023/03/02 03:40:50;;;;;;;;;;;;;;;15.97;64.39;98392.06;2071137;28;20000;-52
2023/03/02 03:41:52;;;;;;;;;;;;;;;15.97;64.28;98391.25;2074553;28;20452;-55
2023/03/02 03:42:52;;;;;;;;;;;;;;;15.96;64.35;98394.91;2071367;28;19929;-57
2023/03/02 03:43:55;;;;;;;;;;;;;;;15.96;64.79;98389.56;2073584;28;22210;-56
2023/03/02 03:44:55;;;;;;;;;;;;;;;15.97;64.87;98391.25;2068079;28;19933;-55
2023/03/02 03:45:57;;;;;;;;;;;;;;;15.93;65.01;98389.94;2068737;28;20496;-52
2023/03/02 03:46:58;;;;;;;;;;;;;;;15.93;64.87;98396.13;2067823;28;19929;-54
2023/03/02 03:47:59;;;;;;;;;;;;;;;15.95;64.76;98387.91;2068563;28;20015;-52
2023/03/02 03:48:59;;;;;;;;;;;;;;;15.93;64.69;98395.31;2069897;28;19933;-51
2023/03/02 03:50:01;;;;;;;;;;;;;;;15.92;64.64;98396.34;2070696;28;20026;-53
2023/03/02 03:51:02;;;;;;;;;;;;;;;15.90;64.71;98396.50;2067592;28;19929;-54
2023/03/02 03:52:03;;;;;;;;;;;;;;;15.90;64.81;98395.69;2069189;28;20329;-53
2023/03/02 03:53:04;;;;;;;;;;;;;;;15.86;64.78;98396.06;2067343;28;19975;-53
2023/03/02 03:54:07;;;;;;;;;;;;;;;15.88;64.59;98398.56;2066313;28;19925;-53
2023/03/02 03:55:07;;;;;;;;;;;;;;;15.87;64.66;98396.91;2072628;28;19940;-53
2023/03/02 03:56:09;;;;;;;;;;;;;;;15.88;64.58;98397.72;2067383;28;20800;-54
2023/03/02 03:57:10;;;;;;;;;;;;;;;15.86;64.80;98393.41;2069317;28;19929;-53
2023/03/02 03:58:12;;;;;;;;;;;;;;;15.88;64.51;98398.56;2067469;28;20352;-53
2023/03/02 03:59:15;;;;;;;;;;;;;;;15.86;64.62;98387.22;2067038;28;20492;-53
2023/03/02 04:00:17;;;;;;;;;;;;;;;15.86;65.03;98393.41;2065805;28;19990;-56
2023/03/02 04:01:17;;;;;;;;;;;;;;;15.86;64.67;98392.56;2069848;28;19933;-55
2023/03/02 04:02:19;;;;;;;;;;;;;;;15.85;64.68;98386.41;2071084;28;19933;-56
2023/03/02 04:03:20;;;;;;;;;;;;;;;15.85;64.63;98389.09;2070493;28;19929;-55
2023/03/02 04:04:23;;;;;;;;;;;;;;;15.83;64.90;98393.78;2070450;28;19929;-56
2023/03/02 04:05:23;;;;;;;;;;;;;;;15.82;64.65;98389.47;2067458;28;19929;-53
2023/03/02 04:06:25;;;;;;;;;;;;;;;15.82;64.70;98394.81;2066080;28;20781;-55
2023/03/02 04:07:25;;;;;;;;;;;;;;;15.82;64.62;98386.78;2070970;28;20346;-55
2023/03/02 04:08:27;;;;;;;;;;;;;;;15.81;64.74;98382.44;2070879;28;19929;-54
2023/03/02 04:09:28;;;;;;;;;;;;;;;15.80;64.57;98380.81;2064548;28;19959;-54
2023/03/02 04:10:29;;;;;;;;;;;;;;;15.79;64.69;98376.44;2067590;28;19929;-58
2023/03/02 04:11:30;;;;;;;;;;;;;;;15.81;64.69;98379.78;2068129;28;19936;-55
2023/03/02 04:12:32;;;;;;;;;;;;;;;15.81;64.61;98381.63;2061257;28;19941;-56
2023/03/02 04:13:32;;;;;;;;;;;;;;;15.77;64.70;98375.84;2071826;28;20002;-57
2023/03/02 04:14:35;;;;;;;;;;;;;;;15.78;64.74;98377.47;2071178;28;19941;-55
2023/03/02 04:15:36;;;;;;;;;;;;;;;15.76;64.92;98379.50;2066696;28;20497;-55
2023/03/02 04:16:39;;;;;;;;;;;;;;;15.78;64.79;98379.34;2065998;28;19933;-53
2023/03/02 04:17:39;;;;;;;;;;;;;;;15.76;64.73;98379.50;2071717;28;19941;-52
2023/03/02 04:18:42;;;;;;;;;;;;;;;15.78;64.59;98376.66;2067395;28;20394;-56
2023/03/02 04:19:42;;;;;;;;;;;;;;;15.76;64.64;98379.50;2071441;28;20019;-57
2023/03/02 04:20:44;;;;;;;;;;;;;;;15.78;64.64;98382.00;2070857;28;19929;-56
2023/03/02 04:21:45;;;;;;;;;;;;;;;15.75;64.66;98382.41;2057420;28;19945;-55
2023/03/02 04:22:48;;;;;;;;;;;;;;;15.75;64.61;98377.03;2067567;28;19940;-54
2023/03/02 04:23:48;;;;;;;;;;;;;;;15.73;64.70;98374.53;2068398;28;19929;-53
2023/03/02 04:24:50;;;;;;;;;;;;;;;15.73;64.56;98385.25;2066789;28;20441;-55
2023/03/02 04:25:50;;;;;;;;;;;;;;;15.72;64.50;98372.09;2068438;28;19937;-54
2023/03/02 04:26:52;;;;;;;;;;;;;;;15.71;64.39;98373.94;2068213;28;19929;-56
2023/03/02 04:27:52;;;;;;;;;;;;;;;15.71;64.50;98381.97;2069983;28;19929;-55
2023/03/02 04:28:54;;;;;;;;;;;;;;;15.72;64.48;98380.09;2064971;28;19933;-54
2023/03/02 04:29:55;;;;;;;;;;;;;;;15.70;64.60;98380.28;2065886;28;19933;-56
2023/03/02 04:30:57;;;;;;;;;;;;;;;15.71;64.50;98389.97;2067401;28;19928;-56
2023/03/02 04:31:57;;;;;;;;;;;;;;;15.71;64.44;98381.09;2064867;28;20446;-55
2023/03/02 04:32:59;;;;;;;;;;;;;;;15.70;64.42;98390.97;2066173;28;19929;-55
2023/03/02 04:34:02;;;;;;;;;;;;;;;15.71;64.76;98391.78;2066378;28;19925;-56
2023/03/02 04:35:04;;;;;;;;;;;;;;;15.71;64.71;98395.31;2063396;28;19940;-56
2023/03/02 04:36:06;;;;;;;;;;;;;;;15.71;64.82;98386.44;2063906;28;22474;-54
2023/03/02 04:37:07;;;;;;;;;;;;;;;15.73;64.84;98387.91;2064512;28;19991;-56
2023/03/02 04:38:08;;;;;;;;;;;;;;;15.74;64.93;98397.63;2066082;28;20523;-54
2023/03/02 04:39:09;;;;;;;;;;;;;;;15.76;64.97;98398.22;2064781;28;19929;-55
2023/03/02 04:40:12;;;;;;;;;;;;;;;15.78;65.00;98392.72;2071788;28;19929;-55
2023/03/02 04:41:12;;;;;;;;;;;;;;;15.78;64.96;98398.88;2072844;28;19925;-54
2023/03/02 04:42:13;;;;;;;;;;;;;;;15.80;64.87;98383.47;2068897;28;19959;-53
2023/03/02 04:43:14;;;;;;;;;;;;;;;15.85;65.09;98389.09;2065924;28;19992;-56
2023/03/02 04:44:16;;;;;;;;;;;;;;;15.89;65.07;98386.03;2066055;28;20365;-53
2023/03/02 04:45:18;;;;;;;;;;;;;;;15.93;65.04;98389.94;2065917;28;19936;-53
2023/03/02 04:46:22;;;;;;;;;;;;;;;15.97;64.92;98384.03;2069121;28;19998;-54
2023/03/02 04:47:22;;;;;;;;;;;;;;;16.01;64.88;98387.16;2066600;28;20468;-54
2023/03/02 04:48:24;;;;;;;;;;;;;;;16.06;64.81;98385.53;2059578;28;19929;-52
2023/03/02 04:49:24;;;;;;;;;;;;;;;16.09;64.73;98389.69;2063112;28;20949;-55
2023/03/02 04:50:26;;;;;;;;;;;;;;;16.12;64.85;98389.28;2071221;28;20089;-51
2023/03/02 04:51:27;;;;;;;;;;;;;;;16.19;64.69;98395.53;2068752;28;19929;-56
2023/03/02 04:52:29;;;;;;;;;;;;;;;16.21;64.65;98400.69;2068812;28;19933;-56
2023/03/02 04:53:29;;;;;;;;;;;;;;;16.23;64.61;98386.09;2068262;28;19983;-53
2023/03/02 04:54:31;;;;;;;;;;;;;;;16.26;64.69;98391.06;2067380;28;20312;-54
2023/03/02 04:55:31;;;;;;;;;;;;;;;16.29;64.58;98389.84;2058563;28;20013;-53
2023/03/02 04:56:33;;;;;;;;;;;;;;;16.33;64.53;98387.63;2065224;28;20951;-56
2023/03/02 04:57:34;;;;;;;;;;;;;;;16.36;64.62;98382.69;2065039;28;19933;-56
2023/03/02 04:58:35;;;;;;;;;;;;;;;16.40;64.36;98383.94;2065368;28;20006;-55
2023/03/02 04:59:36;;;;;;;;;;;;;;;16.44;64.42;98389.75;2070130;28;20520;-51
2023/03/02 05:00:38;;;;;;;;;;;;;;;16.46;64.35;98390.38;2067347;28;19932;-54
2023/03/02 05:01:40;;;;;;;;;;;;;;;16.51;64.46;98395.97;2066634;28;19925;-53
2023/03/02 05:02:41;;;;;;;;;;;;;;;16.53;64.33;98391.25;2066314;28;20453;-53
2023/03/02 05:03:42;;;;;;;;;;;;;;;16.57;64.24;98394.34;2064405;28;19937;-54
2023/03/02 05:04:43;;;;;;;;;;;;;;;16.59;64.31;98395.81;2072996;28;19929;-52
2023/03/02 05:05:44;;;;;;;;;;;;;;;16.62;64.24;98395.41;2064102;28;19954;-52
2023/03/02 05:06:45;;;;;;;;;;;;;;;16.65;64.31;98400.38;2071170;28;19937;-56
2023/03/02 05:07:46;;;;;;;;;;;;;;;16.68;64.42;98397.31;2068001;28;19978;-53
2023/03/02 05:08:47;;;;;;;;;;;;;;;16.71;64.51;98388.88;2065270;28;19929;-54
2023/03/02 05:09:48;;;;;;;;;;;;;;;16.75;64.23;98397.38;2067648;28;19933;-55
2023/03/02 05:10:49;;;;;;;;;;;;;;;16.78;64.23;98398.84;2066315;28;19979;-54
2023/03/02 05:11:49;;;;;;;;;;;;;;;16.81;64.12;98393.09;2070150;28;19975;-54
2023/03/02 05:12:56;;;;;;;;;;;;;;;16.87;64.23;98395.00;2069024;28;19937;-54
2023/03/02 05:13:58;;;;;;;;;;;;;;;16.88;64.10;98394.81;2061752;28;20517;-55
2023/03/02 05:14:59;;;;;;;;;;;;;;;16.91;63.94;98388.19;2066290;28;19925;-54
2023/03/02 05:16:01;;;;;;;;;;;;;;;16.94;63.98;98395.88;2066345;28;19929;-55
2023/03/02 05:17:02;;;;;;;;;;;;;;;16.98;63.96;98394.41;2070652;28;20012;-57
2023/03/02 05:18:04;;;;;;;;;;;;;;;17.09;63.54;98391.19;2062632;28;19941;-56
2023/03/02 05:19:06;;;;;;;;;;;;;;;17.12;63.40;98384.59;2064337;28;21890;-53
2023/03/02 05:20:07;;;;;;;;;;;;;;;17.13;63.41;98395.13;2062090;28;19941;-54
2023/03/02 05:21:09;;;;;;;;;;;;;;;17.13;63.31;98392.44;2072256;28;19989;-54
2023/03/02 05:22:10;;;;;;;;;;;;;;;17.14;63.24;98388.72;2071825;28;19929;-53